createdAt,value
2019-03-27T00:00:01.784Z,50.8
2019-03-27T00:05:01.902Z,49.8
2019-03-27T00:10:02.286Z,49.8
2019-03-27T00:15:12.458Z,50.8
2019-03-27T00:20:02.237Z,50.3
2019-03-27T00:25:02.174Z,49.8
2019-03-27T00:30:02.153Z,50.8
2019-03-27T00:35:02.063Z,50.8
2019-03-27T00:40:02.152Z,50.8
2019-03-27T00:45:02.113Z,50.8
2019-03-27T00:50:01.755Z,50.8
2019-03-27T00:55:01.653Z,50.3
2019-03-27T01:00:02.275Z,50.3
2019-03-27T01:05:02.149Z,50.8
2019-03-27T01:10:01.630Z,50.3
2019-03-27T01:15:02.449Z,49.8
2019-03-27T01:20:01.732Z,49.8
2019-03-27T01:25:02.202Z,50.3
2019-03-27T01:30:02.187Z,49.8
2019-03-27T01:35:02.238Z,50.8
2019-03-27T01:40:01.800Z,50.8
2019-03-27T01:45:01.795Z,50.8
2019-03-27T01:50:02.206Z,50.3
2019-03-27T01:55:01.907Z,50.3
2019-03-27T02:00:02.130Z,49.8
2019-03-27T02:05:02.058Z,50.8
2019-03-27T02:10:02.077Z,50.3
2019-03-27T02:15:01.896Z,50.3
2019-03-27T02:20:02.484Z,50.3
2019-03-27T02:25:02.525Z,49.8
2019-03-27T02:30:02.439Z,50.8
2019-03-27T02:35:01.664Z,50.3
2019-03-27T02:40:01.785Z,50.3
2019-03-27T02:45:01.798Z,50.3
2019-03-27T02:50:02.074Z,49.8
2019-03-27T02:55:02.088Z,49.8
2019-03-27T03:00:02.103Z,50.3
2019-03-27T03:05:02.099Z,49.8
2019-03-27T03:10:02.552Z,50.3
2019-03-27T03:15:02.490Z,49.8
2019-03-27T03:20:01.589Z,50.8
2019-03-27T03:25:01.613Z,49.8
2019-03-27T03:30:01.798Z,49.8
2019-03-27T03:35:01.809Z,50.8
2019-03-27T03:40:02.434Z,49.8
2019-03-27T03:45:02.296Z,50.3
2019-03-27T03:50:02.161Z,50.3
2019-03-27T03:55:02.145Z,49.8
2019-03-27T04:00:01.770Z,50.8
2019-03-27T04:05:01.638Z,50.3
2019-03-27T04:10:01.856Z,50.8
2019-03-27T04:15:01.777Z,50.8
2019-03-27T04:20:02.155Z,50.3
2019-03-27T04:25:02.126Z,49.8
2019-03-27T04:30:01.543Z,50.3
2019-03-27T04:35:01.852Z,49.8
2019-03-27T04:40:01.888Z,50.8
2019-03-27T04:45:01.831Z,50.8
2019-03-27T04:50:02.389Z,50.3
2019-03-27T04:55:02.396Z,50.3
2019-03-27T05:00:02.365Z,50.3
2019-03-27T05:05:02.320Z,49.8
2019-03-27T05:10:02.443Z,49.8
2019-03-27T05:15:02.387Z,49.8
2019-03-27T05:20:02.346Z,50.3
2019-03-27T05:25:02.234Z,50.3
2019-03-27T05:30:01.888Z,50.8
2019-03-27T05:35:01.839Z,50.8
2019-03-27T05:40:02.426Z,50.3
2019-03-27T05:45:02.419Z,49.8
2019-03-27T05:50:02.043Z,50.3
2019-03-27T05:55:02.181Z,49.8
2019-03-27T06:00:01.670Z,49.8
2019-03-27T06:05:01.672Z,49.2
2019-03-27T06:10:01.764Z,48.7
2019-03-27T06:15:01.667Z,49.2
2019-03-27T06:20:01.665Z,49.2
2019-03-27T06:25:01.693Z,49.8
2019-03-27T06:30:01.594Z,49.8
2019-03-27T06:35:02.501Z,49.8
2019-03-27T06:40:02.048Z,50.3
2019-03-27T06:45:01.991Z,50.3
2019-03-27T06:50:02.365Z,49.2
2019-03-27T06:55:02.324Z,50.3
2019-03-27T07:00:01.824Z,50.3
2019-03-27T07:05:01.657Z,50.3
2019-03-27T07:10:01.657Z,49.8
2019-03-27T07:15:02.014Z,49.8
2019-03-27T07:20:02.091Z,50.3
2019-03-27T07:25:02.237Z,49.8
2019-03-27T07:30:02.306Z,49.8
2019-03-27T07:35:02.216Z,50.8
2019-03-27T07:40:01.749Z,50.8
2019-03-27T07:45:01.815Z,50.8
2019-03-27T07:50:01.883Z,51.4
2019-03-27T07:55:01.853Z,50.8
2019-03-27T08:00:02.108Z,50.8
2019-03-27T08:05:02.210Z,50.3
2019-03-27T08:10:01.791Z,50.3
2019-03-27T08:15:01.951Z,49.8
2019-03-27T08:20:02.311Z,50.3
2019-03-27T08:25:02.312Z,50.8
2019-03-27T08:30:01.958Z,50.8
2019-03-27T08:35:01.983Z,50.3
2019-03-27T08:40:01.999Z,50.8
2019-03-27T08:45:01.930Z,50.8
2019-03-27T08:50:02.309Z,50.8
2019-03-27T08:55:02.237Z,50.8
2019-03-27T09:00:02.770Z,50.8
2019-03-27T09:05:02.453Z,50.8
2019-03-27T09:10:01.715Z,50.8
2019-03-27T09:15:01.839Z,51.4
2019-03-27T09:20:02.034Z,50.8
2019-03-27T09:25:01.800Z,50.8
2019-03-27T09:30:01.680Z,51.4
2019-03-27T09:35:01.576Z,51.4
2019-03-27T09:40:02.496Z,51.9
2019-03-27T09:45:02.373Z,51.4
2019-03-27T09:50:01.854Z,51.9
2019-03-27T09:55:02.143Z,51.4
2019-03-27T10:00:02.191Z,51.4
2019-03-27T10:05:02.148Z,51.9
2019-03-27T10:10:02.122Z,51.9
2019-03-27T10:15:02.131Z,51.9
2019-03-27T10:20:03.479Z,51.9
2019-03-27T10:25:02.289Z,51.9
2019-03-27T10:30:01.868Z,51.9
2019-03-27T10:35:01.744Z,51.9
2019-03-27T10:40:01.929Z,52.5
2019-03-27T10:45:01.870Z,52.5
2019-03-27T10:50:01.521Z,53
2019-03-27T10:55:01.659Z,52.5
2019-03-27T11:00:01.714Z,51.9
2019-03-27T11:05:01.794Z,51.9
2019-03-27T11:10:01.849Z,52.5
2019-03-27T11:15:01.864Z,53
2019-03-27T11:20:01.991Z,52.5
2019-03-27T11:25:01.697Z,52.5
2019-03-27T11:30:01.802Z,52.5
2019-03-27T11:35:01.748Z,51.9
2019-03-27T11:40:02.220Z,53
2019-03-27T11:45:02.195Z,53
2019-03-27T11:50:02.473Z,51.9
2019-03-27T11:55:02.602Z,52.5
2019-03-27T12:00:01.557Z,53
2019-03-27T12:05:01.655Z,51.9
2019-03-27T12:10:02.407Z,53.5
2019-03-27T12:15:02.401Z,53
2019-03-27T12:20:01.706Z,53
2019-03-27T12:25:01.722Z,51.9
2019-03-27T12:30:01.867Z,53
2019-03-27T12:35:01.818Z,53.5
2019-03-27T12:40:10.982Z,53
2019-03-27T12:45:02.390Z,53
2019-03-27T12:50:01.847Z,51.9
2019-03-27T12:55:01.822Z,53
2019-03-27T13:00:02.579Z,53
2019-03-27T13:05:02.454Z,53
2019-03-27T13:10:02.449Z,53.5
2019-03-27T13:15:02.443Z,53
2019-03-27T13:20:01.610Z,53
2019-03-27T13:25:01.569Z,52.5
2019-03-27T13:30:02.120Z,53
2019-03-27T13:35:02.163Z,53
2019-03-27T13:40:01.697Z,53.5
2019-03-27T13:45:01.856Z,53.5
2019-03-27T13:50:02.530Z,53
2019-03-27T13:55:02.128Z,54.1
2019-03-27T14:00:01.689Z,54.1
2019-03-27T14:05:01.680Z,53.5
2019-03-27T14:10:01.665Z,53
2019-03-27T14:15:01.733Z,51.9
2019-03-27T14:20:01.947Z,53
2019-03-27T14:25:01.820Z,53
2019-03-27T14:30:02.430Z,53
2019-03-27T14:35:02.452Z,53
2019-03-27T14:40:01.911Z,54.1
2019-03-27T14:45:01.936Z,53
2019-03-27T14:50:02.166Z,53.5
2019-03-27T14:55:03.342Z,53.5
2019-03-27T15:00:02.004Z,53.5
2019-03-27T15:05:02.026Z,53.5
2019-03-27T15:10:01.815Z,54.1
2019-03-27T15:15:01.774Z,53.5
2019-03-27T15:20:02.581Z,53.5
2019-03-27T15:25:02.497Z,50.8
2019-03-27T15:30:02.454Z,49.8
2019-03-27T15:35:02.414Z,48.7
2019-03-27T15:40:02.347Z,48.7
2019-03-27T15:45:02.285Z,48.7
2019-03-27T15:50:01.836Z,49.2
2019-03-27T15:55:01.772Z,48.2
2019-03-27T16:00:01.753Z,48.7
2019-03-27T16:05:01.624Z,48.7
2019-03-27T16:10:01.586Z,48.7
2019-03-27T16:15:02.485Z,49.2
2019-03-27T16:20:02.102Z,48.7
2019-03-27T16:25:01.908Z,48.7
2019-03-27T16:30:01.958Z,48.7
2019-03-27T16:35:01.826Z,48.7
2019-03-27T16:40:02.400Z,48.7
2019-03-27T16:45:02.317Z,49.2
2019-03-27T16:50:02.371Z,48.7
2019-03-27T16:55:02.299Z,48.2
2019-03-27T17:00:02.183Z,48.7
2019-03-27T17:05:02.157Z,49.2
2019-03-27T17:10:02.142Z,48.7
2019-03-27T17:15:01.998Z,48.7
2019-03-27T17:20:02.009Z,48.7
2019-03-27T17:25:02.537Z,49.2
2019-03-27T17:30:02.151Z,47.6
2019-03-27T17:35:02.077Z,48.2
2019-03-27T17:40:01.569Z,47.1
2019-03-27T17:45:01.588Z,47.6
2019-03-27T17:50:01.652Z,48.7
2019-03-27T17:55:01.691Z,48.7
2019-03-27T18:00:02.201Z,48.7
2019-03-27T18:05:02.092Z,47.6
2019-03-27T18:10:02.004Z,47.6
2019-03-27T18:15:01.895Z,48.7
2019-03-27T18:20:01.883Z,47.6
2019-03-27T18:25:01.816Z,48.2
2019-03-27T18:30:01.854Z,48.7
2019-03-27T18:35:01.716Z,47.6
2019-03-27T18:40:02.085Z,47.6
2019-03-27T18:45:02.032Z,48.2
2019-03-27T18:50:02.033Z,48.2
2019-03-27T18:55:01.823Z,47.6
2019-03-27T19:00:01.750Z,47.6
2019-03-27T19:05:01.648Z,47.6
2019-03-27T19:10:01.609Z,47.6
2019-03-27T19:15:01.549Z,47.6
2019-03-27T19:20:01.542Z,47.1
2019-03-27T19:25:01.553Z,47.1
2019-03-27T19:30:02.031Z,47.6
2019-03-27T19:35:02.062Z,47.6
2019-03-27T19:40:02.029Z,47.6
2019-03-27T19:45:01.921Z,47.6
2019-03-27T19:50:01.611Z,47.1
2019-03-27T19:55:02.292Z,47.6
2019-03-27T20:00:01.772Z,47.1
2019-03-27T20:05:01.764Z,47.6
2019-03-27T20:10:01.770Z,47.6
2019-03-27T20:15:11.536Z,47.6
2019-03-27T20:20:02.133Z,47.1
2019-03-27T20:25:02.008Z,47.6
2019-03-27T20:30:01.974Z,47.1
2019-03-27T20:35:02.081Z,47.1
2019-03-27T20:40:01.969Z,47.6
2019-03-27T20:45:01.819Z,47.6
2019-03-27T20:50:02.463Z,47.6
2019-03-27T20:55:02.353Z,47.6
2019-03-27T21:00:02.361Z,47.6
2019-03-27T21:05:01.917Z,47.6
2019-03-27T21:10:01.909Z,46.5
2019-03-27T21:15:01.779Z,47.1
2019-03-27T21:20:02.285Z,47.1
2019-03-27T21:25:08.330Z,47.1
2019-03-27T21:30:02.118Z,46.5
2019-03-27T21:35:02.025Z,47.1
2019-03-27T21:40:02.489Z,47.1
2019-03-27T21:45:02.332Z,42.8
2019-03-27T21:50:01.838Z,42.2
2019-03-27T21:55:01.648Z,42.2
2019-03-27T22:00:02.027Z,42.2
2019-03-27T22:05:01.837Z,41.2
2019-03-27T22:10:01.657Z,41.7
2019-03-27T22:15:01.574Z,41.7
2019-03-27T22:20:02.133Z,41.7
2019-03-27T22:25:02.081Z,42.2
2019-03-27T22:30:01.898Z,41.2
2019-03-27T22:35:01.817Z,41.2
2019-03-27T22:40:02.114Z,41.2
2019-03-27T22:45:01.924Z,41.2
2019-03-27T22:50:02.315Z,42.2
2019-03-27T22:55:02.160Z,41.2
2019-03-27T23:00:01.968Z,41.2
2019-03-27T23:05:01.779Z,41.2
2019-03-27T23:10:02.318Z,41.7
2019-03-27T23:15:02.201Z,41.2
2019-03-27T23:20:01.680Z,41.2
2019-03-27T23:25:01.492Z,41.2
2019-03-27T23:30:02.490Z,41.2
2019-03-27T23:35:02.279Z,41.2
2019-03-27T23:40:02.123Z,41.2
2019-03-27T23:45:02.000Z,42.2
2019-03-27T23:50:01.853Z,41.7
2019-03-27T23:55:01.692Z,41.2
